Time;durP1;ratioP1;P1;durP2;ratioP2;P2;SDS_P1;SDS_P2;PMS_P1;PMS_P2;Temp;Humidity;BMP_temperature;BMP_pressure;BME280_temperature;BME280_humidity;BME280_pressure;Samples;Min_cycle;Max_cycle;Signal;HPM_P1;HPM_P2
2023/03/01 00:02:22;;;;;;;22.48;15.55;;;;;;;;;;5051851;28;20052;-68
2023/03/01 00:04:48;;;;;;;25.65;15.75;;;;;;;;;;5051180;28;20525;-68
2023/03/01 00:07:14;;;;;;;21.17;16.15;;;;;;;;;;5051702;28;20611;-68
2023/03/01 00:09:40;;;;;;;24.10;15.40;;;;;;;;;;5051681;28;20044;-68
2023/03/01 00:12:06;;;;;;;22.38;16.00;;;;;;;;;;5051150;28;20071;-68
2023/03/01 00:14:33;;;;;;;26.77;17.30;;;;;;;;;;5051601;28;20047;-68
2023/03/01 00:16:59;;;;;;;25.98;15.10;;;;;;;;;;5051817;28;20475;-68
2023/03/01 00:19:25;;;;;;;29.10;19.13;;;;;;;;;;5050596;28;20037;-68
2023/03/01 00:21:51;;;;;;;35.92;21.38;;;;;;;;;;5034899;28;20053;-68
2023/03/01 00:24:17;;;;;;;28.15;17.80;;;;;;;;;;5068061;28;20087;-68
2023/03/01 00:26:43;;;;;;;32.33;17.73;;;;;;;;;;5056358;28;20407;-68
2023/03/01 00:29:09;;;;;;;26.20;17.35;;;;;;;;;;5051365;28;20132;-68
2023/03/01 00:31:35;;;;;;;29.80;17.10;;;;;;;;;;5051612;28;20041;-68
2023/03/01 00:34:03;;;;;;;27.83;18.00;;;;;;;;;;5050617;28;20037;-68
2023/03/01 00:36:31;;;;;;;27.33;18.02;;;;;;;;;;5051565;28;20464;-68
2023/03/01 00:38:57;;;;;;;31.63;17.80;;;;;;;;;;5050940;28;20049;-68
2023/03/01 00:41:26;;;;;;;29.40;18.58;;;;;;;;;;5050423;28;20476;-68
2023/03/01 00:43:52;;;;;;;25.55;17.38;;;;;;;;;;5051031;28;20396;-69
2023/03/01 00:46:19;;;;;;;31.92;17.80;;;;;;;;;;5051312;28;20033;-68
2023/03/01 00:48:45;;;;;;;29.58;18.75;;;;;;;;;;5050171;28;20387;-68
2023/03/01 00:51:28;;;;;;;29.15;17.40;;;;;;;;;;5050847;28;20483;-68
2023/03/01 00:53:56;;;;;;;25.02;16.23;;;;;;;;;;5050819;28;20080;-68
2023/03/01 00:56:22;;;;;;;57.20;18.15;;;;;;;;;;5050466;28;20487;-68
2023/03/01 00:58:48;;;;;;;110.95;21.73;;;;;;;;;;5050578;28;20045;-68
2023/03/01 01:01:18;;;;;;;111.57;21.88;;;;;;;;;;5034161;28;20049;-68
2023/03/01 01:03:47;;;;;;;168.95;24.30;;;;;;;;;;5050201;28;20687;-68
2023/03/01 01:06:14;;;;;;;127.40;22.23;;;;;;;;;;5050565;28;20585;-68
2023/03/01 01:08:40;;;;;;;138.95;22.48;;;;;;;;;;5050671;28;20063;-68
2023/03/01 01:11:06;;;;;;;228.98;27.33;;;;;;;;;;5050198;28;20052;-68
2023/03/01 01:13:32;;;;;;;143.55;23.63;;;;;;;;;;5050495;28;20041;-68
2023/03/01 01:16:01;;;;;;;168.20;24.17;;;;;;;;;;5050193;28;20078;-68
2023/03/01 01:18:27;;;;;;;141.90;23.83;;;;;;;;;;5049690;28;20411;-68
2023/03/01 01:20:53;;;;;;;106.10;20.45;;;;;;;;;;5050229;28;20048;-68
2023/03/01 01:23:19;;;;;;;102.43;20.30;;;;;;;;;;5056047;28;20037;-68
2023/03/01 01:25:45;;;;;;;99.75;21.20;;;;;;;;;;5056193;28;20036;-68
2023/03/01 01:28:11;;;;;;;88.60;19.23;;;;;;;;;;5070308;28;20059;-68
2023/03/01 01:30:37;;;;;;;82.18;19.75;;;;;;;;;;5070396;28;20048;-68
2023/03/01 01:33:03;;;;;;;67.25;19.77;;;;;;;;;;5052914;28;20036;-68
2023/03/01 01:35:29;;;;;;;55.17;18.33;;;;;;;;;;5053395;28;20063;-68
2023/03/01 01:37:55;;;;;;;69.88;17.98;;;;;;;;;;5070075;28;20044;-68
2023/03/01 01:40:21;;;;;;;97.03;19.88;;;;;;;;;;5069283;28;20032;-68
2023/03/01 01:42:47;;;;;;;84.43;17.52;;;;;;;;;;5070235;28;20040;-68
2023/03/01 01:45:40;;;;;;;75.97;19.83;;;;;;;;;;5069696;28;20143;-68
2023/03/01 01:48:13;;;;;;;68.53;17.23;;;;;;;;;;5053664;28;20582;-68
2023/03/01 01:50:40;;;;;;;65.22;17.15;;;;;;;;;;5050073;28;20082;-68
2023/03/01 01:53:09;;;;;;;67.63;17.77;;;;;;;;;;5049904;28;20041;-69
2023/03/01 01:55:36;;;;;;;60.25;16.38;;;;;;;;;;5049181;28;20049;-69
2023/03/01 01:58:05;;;;;;;53.15;16.63;;;;;;;;;;5049698;28;20048;-69
2023/03/01 02:00:31;;;;;;;33.20;16.98;;;;;;;;;;5049833;28;20049;-68
2023/03/01 02:03:00;;;;;;;25.50;15.60;;;;;;;;;;5032017;28;20044;-68
2023/03/01 02:05:29;;;;;;;19.73;14.82;;;;;;;;;;5049715;28;20048;-68
2023/03/01 02:07:56;;;;;;;25.33;15.90;;;;;;;;;;5049439;28;20403;-68
2023/03/01 02:10:23;;;;;;;25.15;15.45;;;;;;;;;;5048921;28;20187;-68
2023/03/01 02:12:50;;;;;;;26.92;16.15;;;;;;;;;;5049419;28;20047;-68
2023/03/01 02:15:16;;;;;;;23.05;15.80;;;;;;;;;;5049531;28;20045;-68
2023/03/01 02:17:42;;;;;;;23.38;16.23;;;;;;;;;;5048778;28;20045;-68
2023/03/01 02:20:08;;;;;;;22.83;15.65;;;;;;;;;;5049438;28;20098;-68
2023/03/01 02:22:36;;;;;;;23.63;16.88;;;;;;;;;;5051648;28;20060;-68
2023/03/01 02:25:18;;;;;;;23.83;14.70;;;;;;;;;;5068219;28;20430;-68
2023/03/01 02:28:03;;;;;;;22.65;15.80;;;;;;;;;;5049549;28;20090;-68
2023/03/01 02:30:30;;;;;;;18.90;14.35;;;;;;;;;;5049345;28;20131;-69
2023/03/01 02:33:02;;;;;;;20.88;14.82;;;;;;;;;;5048726;28;20360;-68
2023/03/01 02:35:29;;;;;;;22.45;15.90;;;;;;;;;;5049594;28;20045;-68
2023/03/01 02:37:56;;;;;;;20.50;14.48;;;;;;;;;;5048932;28;20126;-68
2023/03/01 02:40:23;;;;;;;22.63;15.10;;;;;;;;;;5048564;28;20127;-68
2023/03/01 02:42:51;;;;;;;20.35;15.20;;;;;;;;;;5049111;28;20403;-68
2023/03/01 02:45:17;;;;;;;21.73;15.55;;;;;;;;;;5032786;28;20472;-68
2023/03/01 02:47:43;;;;;;;21.40;15.45;;;;;;;;;;5039490;28;20753;-68
2023/03/01 02:50:28;;;;;;;21.27;15.57;;;;;;;;;;5049253;28;20128;-68
2023/03/01 02:53:06;;;;;;;20.48;14.60;;;;;;;;;;5049033;28;20138;-68
2023/03/01 02:55:32;;;;;;;20.20;15.50;;;;;;;;;;5048650;28;20045;-69
2023/03/01 02:58:02;;;;;;;23.80;16.10;;;;;;;;;;5048783;28;20052;-69
2023/03/01 03:00:39;;;;;;;24.42;17.30;;;;;;;;;;5048960;28;20045;-68
2023/03/01 03:03:06;;;;;;;22.25;16.35;;;;;;;;;;5048678;28;20044;-68
2023/03/01 03:05:32;;;;;;;20.13;15.30;;;;;;;;;;5048904;28;20033;-68
2023/03/01 03:07:59;;;;;;;18.98;14.02;;;;;;;;;;5049029;28;20055;-68
2023/03/01 03:10:27;;;;;;;21.48;15.05;;;;;;;;;;5048916;28;20048;-68
2023/03/01 03:12:55;;;;;;;21.00;14.90;;;;;;;;;;5049824;28;20045;-68
2023/03/01 03:15:21;;;;;;;21.58;15.05;;;;;;;;;;5052910;28;20510;-68
2023/03/01 03:17:48;;;;;;;20.67;15.05;;;;;;;;;;5052228;28;20618;-68
2023/03/01 03:20:18;;;;;;;20.95;14.95;;;;;;;;;;5035731;28;20043;-68
2023/03/01 03:22:48;;;;;;;19.25;14.15;;;;;;;;;;5052374;28;20060;-68
2023/03/01 03:25:15;;;;;;;20.60;14.52;;;;;;;;;;5051752;28;20087;-68
2023/03/01 03:27:43;;;;;;;18.83;14.23;;;;;;;;;;5052472;28;20171;-68
2023/03/01 03:30:12;;;;;;;20.77;15.25;;;;;;;;;;5052649;28;20056;-68
2023/03/01 03:32:42;;;;;;;21.65;14.93;;;;;;;;;;5035440;28;20052;-68
2023/03/01 03:35:09;;;;;;;19.92;14.18;;;;;;;;;;5052583;28;20040;-69
2023/03/01 03:40:24;;;;;;;17.63;13.43;;;;;;;;;;5052220;28;20044;-68
2023/03/01 03:42:50;;;;;;;17.30;13.25;;;;;;;;;;5052414;28;20381;-68
2023/03/01 03:45:17;;;;;;;18.15;12.60;;;;;;;;;;5051839;28;20037;-68
2023/03/01 03:47:43;;;;;;;16.98;13.20;;;;;;;;;;5063261;28;20454;-68
2023/03/01 03:50:14;;;;;;;17.30;13.57;;;;;;;;;;5072060;28;20044;-68
2023/03/01 03:52:40;;;;;;;18.05;13.77;;;;;;;;;;5071809;28;20055;-68
2023/03/01 03:55:10;;;;;;;15.60;12.45;;;;;;;;;;5071964;28;20049;-68
2023/03/01 03:57:42;;;;;;;17.92;13.50;;;;;;;;;;5072225;28;20040;-68
2023/03/01 04:00:12;;;;;;;17.55;12.98;;;;;;;;;;5054435;28;20040;-68
2023/03/01 04:02:42;;;;;;;17.83;13.88;;;;;;;;;;5072279;28;20074;-68
2023/03/01 04:05:10;;;;;;;17.85;14.00;;;;;;;;;;5072035;28;20475;-68
2023/03/01 04:07:36;;;;;;;16.50;12.43;;;;;;;;;;5071121;28;20049;-68
2023/03/01 04:10:07;;;;;;;18.60;13.98;;;;;;;;;;5055248;28;20059;-68
2023/03/01 04:12:36;;;;;;;16.63;13.10;;;;;;;;;;5071840;28;20037;-68
2023/03/01 04:15:12;;;;;;;17.75;13.60;;;;;;;;;;5071081;28;20079;-68
2023/03/01 04:17:39;;;;;;;16.88;13.45;;;;;;;;;;5071645;28;20079;-68
2023/03/01 04:20:06;;;;;;;18.92;13.90;;;;;;;;;;5071342;28;20135;-68
2023/03/01 04:22:33;;;;;;;15.77;12.48;;;;;;;;;;5051854;28;20190;-68
2023/03/01 04:25:05;;;;;;;18.02;13.77;;;;;;;;;;5050975;28;20036;-68
2023/03/01 04:27:33;;;;;;;16.63;12.55;;;;;;;;;;5051447;28;20037;-68
2023/03/01 04:29:59;;;;;;;17.40;13.13;;;;;;;;;;5050870;28;20048;-68
2023/03/01 04:32:25;;;;;;;18.38;13.68;;;;;;;;;;5051186;28;20494;-68
2023/03/01 04:34:51;;;;;;;16.77;13.93;;;;;;;;;;5051499;28;20492;-68
2023/03/01 04:37:17;;;;;;;17.25;13.88;;;;;;;;;;5050588;28;20045;-68
2023/03/01 04:39:45;;;;;;;18.75;13.88;;;;;;;;;;5051271;28;20051;-68
2023/03/01 04:42:11;;;;;;;16.67;12.65;;;;;;;;;;5034459;28;20040;-68
2023/03/01 04:44:38;;;;;;;18.60;13.50;;;;;;;;;;5050821;28;20040;-68
2023/03/01 04:47:04;;;;;;;16.83;12.68;;;;;;;;;;5056428;28;20082;-68
2023/03/01 04:49:30;;;;;;;17.70;13.05;;;;;;;;;;5071148;28;20120;-69
2023/03/01 04:52:01;;;;;;;19.27;14.20;;;;;;;;;;5070277;28;20123;-69
2023/03/01 04:54:28;;;;;;;20.25;14.23;;;;;;;;;;5071003;28;20132;-69
2023/03/01 04:56:54;;;;;;;18.83;14.75;;;;;;;;;;5070976;28;20498;-68
2023/03/01 04:59:22;;;;;;;20.02;13.48;;;;;;;;;;5070170;28;20048;-68
2023/03/01 05:01:48;;;;;;;17.95;13.52;;;;;;;;;;5070729;28;20177;-68
2023/03/01 05:04:15;;;;;;;16.60;13.65;;;;;;;;;;5070893;28;20032;-68
2023/03/01 05:06:41;;;;;;;17.05;13.13;;;;;;;;;;5070012;28;20051;-69
2023/03/01 05:09:07;;;;;;;16.23;13.30;;;;;;;;;;5070549;28;20072;-69
2023/03/01 05:11:35;;;;;;;19.20;14.10;;;;;;;;;;5070427;28;20040;-69
2023/03/01 05:14:10;;;;;;;18.05;13.93;;;;;;;;;;5069794;28;20051;-69
2023/03/01 05:16:37;;;;;;;17.98;12.90;;;;;;;;;;5070441;28;20052;-68
2023/03/01 05:19:14;;;;;;;17.35;13.75;;;;;;;;;;5053426;28;20387;-68
2023/03/01 05:22:01;;;;;;;17.13;13.13;;;;;;;;;;5069428;28;20060;-68
2023/03/01 05:24:27;;;;;;;20.23;14.90;;;;;;;;;;5070224;28;20032;-68
2023/03/01 05:26:54;;;;;;;21.33;14.70;;;;;;;;;;5054666;28;20120;-68
2023/03/01 05:29:24;;;;;;;21.20;14.98;;;;;;;;;;5049643;28;20146;-69
2023/03/01 05:32:00;;;;;;;21.73;14.32;;;;;;;;;;5050801;28;20059;-68
2023/03/01 05:34:28;;;;;;;22.05;14.80;;;;;;;;;;5052091;28;20095;-68
2023/03/01 05:36:54;;;;;;;28.77;15.48;;;;;;;;;;5049342;28;20488;-68
2023/03/01 05:39:23;;;;;;;19.55;14.18;;;;;;;;;;5033893;28;20083;-68
2023/03/01 05:41:53;;;;;;;19.27;14.07;;;;;;;;;;5050691;28;20551;-68
2023/03/01 05:44:20;;;;;;;22.88;14.45;;;;;;;;;;5050025;28;20032;-69
2023/03/01 05:46:46;;;;;;;23.10;15.32;;;;;;;;;;5050449;28;20384;-68
2023/03/01 05:49:13;;;;;;;24.48;15.40;;;;;;;;;;5050265;28;20055;-68
2023/03/01 05:51:39;;;;;;;20.50;15.35;;;;;;;;;;5049801;28;20396;-68
2023/03/01 05:54:08;;;;;;;23.58;15.95;;;;;;;;;;5050127;28;20091;-68
2023/03/01 05:56:35;;;;;;;23.73;15.90;;;;;;;;;;5033514;28;20104;-68
2023/03/01 05:59:01;;;;;;;28.67;16.63;;;;;;;;;;5049408;28;20431;-68
2023/03/01 06:01:27;;;;;;;28.38;16.73;;;;;;;;;;5050155;28;20041;-68
2023/03/01 06:03:54;;;;;;;26.67;16.95;;;;;;;;;;5033727;28;20041;-68
2023/03/01 06:06:20;;;;;;;25.13;16.63;;;;;;;;;;5049468;28;20383;-68
2023/03/01 06:08:46;;;;;;;23.50;15.23;;;;;;;;;;5033226;28;20051;-68
2023/03/01 06:11:12;;;;;;;27.05;15.95;;;;;;;;;;5050111;28;20137;-68
2023/03/01 06:13:38;;;;;;;27.55;16.17;;;;;;;;;;5049060;28;20040;-68
2023/03/01 06:16:07;;;;;;;28.75;15.93;;;;;;;;;;5033454;28;20043;-68
2023/03/01 06:18:33;;;;;;;26.77;16.38;;;;;;;;;;5049687;28;20041;-68
2023/03/01 06:20:59;;;;;;;28.88;16.75;;;;;;;;;;5049021;28;20064;-68
2023/03/01 06:23:26;;;;;;;30.40;16.83;;;;;;;;;;5042590;28;20383;-68
2023/03/01 06:25:52;;;;;;;25.98;16.27;;;;;;;;;;5062565;28;20033;-68
2023/03/01 06:28:18;;;;;;;29.83;17.27;;;;;;;;;;5048971;28;20110;-69
2023/03/01 06:30:44;;;;;;;27.80;16.83;;;;;;;;;;5049800;28;20076;-69
2023/03/01 06:33:10;;;;;;;31.25;17.70;;;;;;;;;;5049789;28;20089;-69
2023/03/01 06:35:36;;;;;;;30.42;17.40;;;;;;;;;;5049260;28;20084;-69
2023/03/01 06:38:03;;;;;;;30.35;17.35;;;;;;;;;;5049480;28;20075;-69
2023/03/01 06:40:31;;;;;;;28.45;17.25;;;;;;;;;;5049715;28;20044;-69
2023/03/01 06:42:57;;;;;;;27.95;16.52;;;;;;;;;;5049415;28;20523;-69
2023/03/01 06:45:23;;;;;;;28.00;17.48;;;;;;;;;;5049478;28;20037;-69
2023/03/01 06:47:49;;;;;;;26.15;16.60;;;;;;;;;;5050453;28;20178;-69
2023/03/01 06:50:16;;;;;;;25.77;16.25;;;;;;;;;;5052759;28;20040;-69
2023/03/01 06:52:44;;;;;;;26.35;16.27;;;;;;;;;;5053746;28;20057;-69
2023/03/01 06:55:11;;;;;;;23.52;15.90;;;;;;;;;;5037128;28;20558;-69
2023/03/01 06:57:37;;;;;;;24.98;15.80;;;;;;;;;;5053101;28;20053;-69
2023/03/01 07:00:04;;;;;;;24.45;15.52;;;;;;;;;;5053093;28;20667;-69
2023/03/01 07:02:30;;;;;;;23.00;16.02;;;;;;;;;;5053465;28;20049;-69
2023/03/01 07:04:56;;;;;;;25.40;16.40;;;;;;;;;;5053125;28;20111;-69
2023/03/01 07:07:23;;;;;;;23.13;15.35;;;;;;;;;;5053197;28;20428;-69
2023/03/01 07:09:49;;;;;;;24.92;15.93;;;;;;;;;;5053209;28;20037;-69
2023/03/01 07:12:16;;;;;;;24.95;14.73;;;;;;;;;;5053683;28;20049;-69
2023/03/01 07:14:42;;;;;;;23.42;15.45;;;;;;;;;;5035955;28;20045;-69
2023/03/01 07:17:08;;;;;;;24.02;16.08;;;;;;;;;;5053360;28;20116;-69
2023/03/01 07:19:34;;;;;;;22.35;15.10;;;;;;;;;;5053149;28;20487;-69
2023/03/01 07:22:00;;;;;;;23.65;15.25;;;;;;;;;;5052668;28;20396;-69
2023/03/01 07:24:26;;;;;;;22.75;15.65;;;;;;;;;;5067436;28;20045;-69
2023/03/01 07:26:53;;;;;;;25.77;16.48;;;;;;;;;;5068289;28;20047;-69
2023/03/01 07:29:19;;;;;;;23.70;15.65;;;;;;;;;;5072504;28;20584;-69
2023/03/01 07:31:46;;;;;;;26.00;16.25;;;;;;;;;;5072824;28;20383;-69
2023/03/01 07:34:12;;;;;;;24.35;16.65;;;;;;;;;;5073000;28;20510;-69
2023/03/01 07:36:39;;;;;;;25.15;16.23;;;;;;;;;;5055539;28;20044;-69
2023/03/01 07:39:05;;;;;;;29.88;16.92;;;;;;;;;;5072704;28;20785;-68
2023/03/01 07:41:31;;;;;;;27.60;17.25;;;;;;;;;;5072686;28;20055;-68
2023/03/01 07:43:57;;;;;;;29.60;16.85;;;;;;;;;;5072267;28;20076;-68
2023/03/01 07:46:23;;;;;;;33.47;18.15;;;;;;;;;;5072415;28;20037;-70
2023/03/01 07:48:49;;;;;;;30.10;16.98;;;;;;;;;;5051482;28;20443;-70
2023/03/01 07:51:15;;;;;;;28.70;18.42;;;;;;;;;;5051461;28;20123;-71
2023/03/01 07:53:41;;;;;;;28.80;17.95;;;;;;;;;;5052655;28;20094;-70
2023/03/01 07:56:09;;;;;;;31.10;18.02;;;;;;;;;;5052549;28;20048;-70
2023/03/01 07:58:36;;;;;;;34.50;19.20;;;;;;;;;;5051485;28;20419;-71
2023/03/01 08:01:03;;;;;;;31.52;18.63;;;;;;;;;;5051480;28;20095;-73
2023/03/01 08:03:29;;;;;;;36.03;20.20;;;;;;;;;;5039717;28;20036;-71
2023/03/01 08:05:55;;;;;;;36.83;19.98;;;;;;;;;;5051701;28;20051;-71
2023/03/01 08:08:21;;;;;;;37.78;21.70;;;;;;;;;;5063950;28;20072;-71
2023/03/01 08:10:47;;;;;;;37.83;21.10;;;;;;;;;;5050190;28;20094;-71
2023/03/01 08:13:13;;;;;;;37.83;20.60;;;;;;;;;;5026557;28;20119;-70
2023/03/01 08:15:40;;;;;;;36.80;21.27;;;;;;;;;;5045385;28;20344;-71
2023/03/01 08:18:06;;;;;;;37.28;21.95;;;;;;;;;;5069044;28;20119;-71
2023/03/01 08:20:32;;;;;;;40.85;22.35;;;;;;;;;;5038745;28;20037;-71
2023/03/01 08:22:58;;;;;;;43.53;23.80;;;;;;;;;;5035930;28;20067;-72
2023/03/01 08:25:24;;;;;;;47.95;25.30;;;;;;;;;;5050253;28;20029;-70
2023/03/01 08:27:50;;;;;;;49.30;25.95;;;;;;;;;;5059676;28;20051;-70
2023/03/01 08:30:17;;;;;;;45.10;24.80;;;;;;;;;;5071452;28;20040;-70
2023/03/01 08:32:43;;;;;;;49.03;25.05;;;;;;;;;;5050853;28;20139;-71
2023/03/01 08:35:09;;;;;;;45.97;24.65;;;;;;;;;;5058767;28;20729;-68
2023/03/01 08:37:35;;;;;;;43.75;25.35;;;;;;;;;;5071406;28;20487;-71
2023/03/01 08:40:01;;;;;;;48.90;26.30;;;;;;;;;;5066780;28;20144;-68
2023/03/01 08:42:27;;;;;;;42.72;23.77;;;;;;;;;;5052971;28;20070;-70
2023/03/01 08:44:54;;;;;;;42.83;24.13;;;;;;;;;;5067868;28;20079;-72
2023/03/01 08:47:20;;;;;;;43.25;24.52;;;;;;;;;;5070096;28;20052;-70
2023/03/01 08:49:46;;;;;;;42.08;24.58;;;;;;;;;;5070366;28;20430;-69
2023/03/01 08:52:12;;;;;;;50.22;25.88;;;;;;;;;;5055694;28;20480;-70
2023/03/01 08:54:38;;;;;;;48.75;26.23;;;;;;;;;;5050550;28;20048;-69
2023/03/01 08:57:05;;;;;;;49.08;25.55;;;;;;;;;;5068971;28;20032;-70
2023/03/01 08:59:35;;;;;;;49.60;26.48;;;;;;;;;;5061096;28;20049;-70
2023/03/01 09:02:01;;;;;;;52.15;26.17;;;;;;;;;;5050787;28;20598;-71
2023/03/01 09:04:27;;;;;;;55.10;28.23;;;;;;;;;;5062635;28;20500;-70
2023/03/01 09:06:53;;;;;;;47.95;28.02;;;;;;;;;;5066865;28;20048;-70
2023/03/01 09:09:19;;;;;;;51.67;29.20;;;;;;;;;;5050263;28;20045;-71
2023/03/01 09:11:45;;;;;;;48.55;26.13;;;;;;;;;;5056991;28;20059;-70
2023/03/01 09:14:12;;;;;;;56.10;28.40;;;;;;;;;;5038311;28;20041;-70
2023/03/01 09:16:39;;;;;;;52.28;28.20;;;;;;;;;;5033456;28;20036;-71
2023/03/01 09:19:06;;;;;;;54.20;27.52;;;;;;;;;;5032101;28;20423;-71
2023/03/01 09:21:32;;;;;;;56.60;27.63;;;;;;;;;;5037716;28;20105;-71
2023/03/01 09:23:58;;;;;;;56.78;28.10;;;;;;;;;;5055396;28;20049;-71
2023/03/01 09:26:25;;;;;;;49.45;27.60;;;;;;;;;;5061202;28;20329;-71
2023/03/01 09:28:52;;;;;;;49.53;27.00;;;;;;;;;;5066606;28;20055;-70
2023/03/01 09:31:19;;;;;;;46.72;26.13;;;;;;;;;;5053204;28;20044;-71
2023/03/01 09:33:49;;;;;;;49.58;26.35;;;;;;;;;;5058900;28;20589;-70
2023/03/01 09:36:17;;;;;;;44.20;22.98;;;;;;;;;;5049862;28;20040;-70
2023/03/01 09:38:43;;;;;;;44.17;23.50;;;;;;;;;;5049632;28;20036;-70
2023/03/01 09:41:30;;;;;;;40.55;21.25;;;;;;;;;;5061874;28;20395;-70
2023/03/01 09:44:08;;;;;;;40.78;23.05;;;;;;;;;;5056976;28;20052;-70
2023/03/01 09:46:38;;;;;;;34.85;19.48;;;;;;;;;;5051659;28;20036;-70
2023/03/01 09:49:07;;;;;;;32.13;18.10;;;;;;;;;;5056048;28;20391;-71
2023/03/01 09:51:34;;;;;;;28.17;15.52;;;;;;;;;;5034234;28;20411;-71
2023/03/01 09:54:04;;;;;;;30.58;16.90;;;;;;;;;;5061488;28;20436;-71
2023/03/01 09:56:34;;;;;;;33.95;17.90;;;;;;;;;;5056552;28;20049;-71
2023/03/01 09:59:19;;;;;;;27.65;16.33;;;;;;;;;;5033066;28;20167;-71
2023/03/01 10:02:01;;;;;;;26.30;14.27;;;;;;;;;;5049611;28;20044;-71
2023/03/01 10:04:39;;;;;;;24.40;13.57;;;;;;;;;;5060311;28;20044;-70
2023/03/01 10:07:11;;;;;;;24.02;13.93;;;;;;;;;;5049343;28;20045;-70
2023/03/01 10:09:39;;;;;;;21.58;12.35;;;;;;;;;;5049451;28;20035;-70
2023/03/01 10:12:08;;;;;;;19.27;12.18;;;;;;;;;;5054476;28;20491;-68
2023/03/01 10:14:37;;;;;;;21.83;12.00;;;;;;;;;;5049998;28;20036;-67
2023/03/01 10:17:08;;;;;;;22.77;12.35;;;;;;;;;;5057737;28;20065;-68
2023/03/01 10:19:40;;;;;;;22.02;12.95;;;;;;;;;;5055753;28;20479;-68
2023/03/01 10:22:11;;;;;;;22.00;12.45;;;;;;;;;;5032845;28;20061;-67
2023/03/01 10:24:38;;;;;;;27.85;14.68;;;;;;;;;;5035964;28;20052;-65
2023/03/01 10:27:36;;;;;;;25.73;14.50;;;;;;;;;;5051773;28;20055;-66
2023/03/01 10:30:06;;;;;;;22.75;13.93;;;;;;;;;;5051537;28;20072;-67
2023/03/01 10:32:33;;;;;;;21.58;12.38;;;;;;;;;;5050357;28;20048;-65
2023/03/01 10:34:59;;;;;;;21.85;12.35;;;;;;;;;;5052552;28;20403;-67
2023/03/01 10:37:27;;;;;;;20.15;11.63;;;;;;;;;;4152889;28;10000193;-70
2023/03/01 10:39:57;;;;;;;22.65;12.13;;;;;;;;;;5048360;28;20045;-67
2023/03/01 10:42:33;;;;;;;19.30;11.80;;;;;;;;;;5048017;28;20368;-66
2023/03/01 10:45:15;;;;;;;19.95;11.13;;;;;;;;;;5060505;28;20035;-67
2023/03/01 10:47:41;;;;;;;16.92;10.50;;;;;;;;;;5047325;28;20443;-67
2023/03/01 10:50:19;;;;;;;13.02;7.93;;;;;;;;;;5049870;28;20045;-68
2023/03/01 10:52:57;;;;;;;12.38;7.82;;;;;;;;;;5048914;28;20476;-64
2023/03/01 10:55:26;;;;;;;12.60;7.20;;;;;;;;;;5064299;28;20037;-66
2023/03/01 10:58:06;;;;;;;10.80;6.68;;;;;;;;;;5054186;28;20036;-66
2023/03/01 11:00:32;;;;;;;12.93;7.22;;;;;;;;;;5048536;28;20414;-66
2023/03/01 11:02:58;;;;;;;13.25;7.00;;;;;;;;;;5048420;28;20049;-66
2023/03/01 11:05:25;;;;;;;10.77;6.35;;;;;;;;;;5047557;28;20557;-66
2023/03/01 11:07:56;;;;;;;11.02;6.72;;;;;;;;;;5063288;28;20878;-66
2023/03/01 11:10:22;;;;;;;11.40;7.55;;;;;;;;;;5057556;28;20041;-66
2023/03/01 11:12:48;;;;;;;11.40;6.78;;;;;;;;;;5060341;28;20037;-66
2023/03/01 11:15:28;;;;;;;13.88;8.30;;;;;;;;;;5034448;28;20090;-66
2023/03/01 11:17:55;;;;;;;11.85;7.28;;;;;;;;;;5051299;28;20037;-67
2023/03/01 11:20:22;;;;;;;13.05;7.75;;;;;;;;;;5055284;28;20136;-67
2023/03/01 11:22:51;;;;;;;11.75;7.63;;;;;;;;;;5048912;28;20060;-67
2023/03/01 11:25:18;;;;;;;12.68;7.65;;;;;;;;;;5059151;28;20041;-68
2023/03/01 11:27:45;;;;;;;10.50;6.70;;;;;;;;;;5048874;28;20045;-69
2023/03/01 11:30:11;;;;;;;10.88;6.10;;;;;;;;;;5047995;28;20049;-67
2023/03/01 11:32:43;;;;;;;11.55;6.45;;;;;;;;;;5048354;28;20094;-68
2023/03/01 11:35:18;;;;;;;10.10;6.20;;;;;;;;;;5059627;28;20502;-67
2023/03/01 11:37:47;;;;;;;9.43;6.20;;;;;;;;;;5062378;28;20048;-67
2023/03/01 11:40:13;;;;;;;8.13;5.50;;;;;;;;;;5051777;28;20068;-67
2023/03/01 11:42:42;;;;;;;10.20;6.25;;;;;;;;;;5058563;28;20049;-68
2023/03/01 11:45:10;;;;;;;9.60;6.10;;;;;;;;;;5051537;28;20048;-68
2023/03/01 11:47:42;;;;;;;11.52;6.55;;;;;;;;;;5056390;28;20095;-68
2023/03/01 11:50:17;;;;;;;10.90;6.60;;;;;;;;;;5055456;28;20037;-67
2023/03/01 11:52:49;;;;;;;11.00;6.43;;;;;;;;;;5052089;28;20492;-68
2023/03/01 11:55:28;;;;;;;11.75;6.93;;;;;;;;;;5057198;28;20055;-68
2023/03/01 11:58:13;;;;;;;11.95;7.07;;;;;;;;;;5053388;28;20049;-68
2023/03/01 12:00:52;;;;;;;15.00;9.77;;;;;;;;;;5055068;28;20086;-68
2023/03/01 12:03:18;;;;;;;18.20;11.20;;;;;;;;;;5059031;28;20040;-67
2023/03/01 12:06:03;;;;;;;14.85;9.18;;;;;;;;;;5051772;28;20091;-67
2023/03/01 12:08:35;;;;;;;17.25;10.23;;;;;;;;;;5052691;28;20083;-68
2023/03/01 12:11:11;;;;;;;15.20;10.73;;;;;;;;;;5052495;28;20092;-68
2023/03/01 12:13:51;;;;;;;16.30;10.15;;;;;;;;;;5070244;28;20041;-67
2023/03/01 12:16:26;;;;;;;19.80;11.73;;;;;;;;;;5064231;28;20468;-68
2023/03/01 12:18:55;;;;;;;16.55;10.68;;;;;;;;;;5051009;28;20037;-68
2023/03/01 12:21:24;;;;;;;15.05;10.43;;;;;;;;;;5054236;28;20052;-68
2023/03/01 12:24:03;;;;;;;16.90;11.43;;;;;;;;;;5052390;28;20462;-68
2023/03/01 12:26:34;;;;;;;15.00;10.27;;;;;;;;;;5051303;28;20353;-68
2023/03/01 12:29:15;;;;;;;16.35;10.52;;;;;;;;;;5052006;28;20537;-68
2023/03/01 12:31:44;;;;;;;16.25;10.15;;;;;;;;;;5052549;28;20041;-68
2023/03/01 12:34:25;;;;;;;16.88;10.48;;;;;;;;;;5057291;28;20049;-68
2023/03/01 12:36:51;;;;;;;18.45;11.13;;;;;;;;;;5058711;28;20084;-68
2023/03/01 12:39:17;;;;;;;15.23;9.73;;;;;;;;;;5049806;28;20045;-68
2023/03/01 12:41:52;;;;;;;16.63;10.90;;;;;;;;;;5048523;28;20049;-68
2023/03/01 12:44:24;;;;;;;16.63;10.57;;;;;;;;;;5065976;28;20037;-67
2023/03/01 12:47:05;;;;;;;19.30;11.13;;;;;;;;;;5053391;28;20045;-68
2023/03/01 12:49:33;;;;;;;16.00;10.50;;;;;;;;;;5054799;28;20052;-69
2023/03/01 12:52:02;;;;;;;12.35;9.07;;;;;;;;;;5053188;28;20052;-69
2023/03/01 12:54:32;;;;;;;16.58;10.13;;;;;;;;;;5049592;28;20047;-67
2023/03/01 12:57:00;;;;;;;16.85;10.80;;;;;;;;;;5051547;28;20073;-68
2023/03/01 12:59:39;;;;;;;14.07;9.85;;;;;;;;;;5050287;28;20426;-68
2023/03/01 13:02:22;;;;;;;15.45;10.27;;;;;;;;;;5052938;28;20048;-69
2023/03/01 13:04:55;;;;;;;16.90;11.10;;;;;;;;;;5060538;28;20075;-69
2023/03/01 13:07:24;;;;;;;16.08;10.43;;;;;;;;;;5052601;28;20073;-69
2023/03/01 13:10:07;;;;;;;15.40;10.13;;;;;;;;;;5040162;28;20037;-69
2023/03/01 13:12:43;;;;;;;13.05;9.90;;;;;;;;;;5053581;28;20063;-69
2023/03/01 13:15:22;;;;;;;15.07;10.10;;;;;;;;;;5052685;28;20119;-70
2023/03/01 13:17:49;;;;;;;14.95;10.98;;;;;;;;;;5060863;28;20043;-69
2023/03/01 13:20:17;;;;;;;16.75;10.40;;;;;;;;;;5038680;28;20467;-69
2023/03/01 13:22:43;;;;;;;16.35;10.57;;;;;;;;;;5049436;28;20689;-69
2023/03/01 13:25:27;;;;;;;16.55;10.90;;;;;;;;;;5056594;28;20487;-69
2023/03/01 13:28:13;;;;;;;15.52;10.55;;;;;;;;;;5054068;28;20730;-69
2023/03/01 13:30:40;;;;;;;16.70;11.25;;;;;;;;;;5068856;28;20048;-70
2023/03/01 13:33:25;;;;;;;15.95;11.23;;;;;;;;;;5052659;28;20044;-69
2023/03/01 13:35:51;;;;;;;16.17;11.18;;;;;;;;;;5058822;28;20051;-68
2023/03/01 13:38:36;;;;;;;14.43;10.07;;;;;;;;;;5049194;28;20033;-69
2023/03/01 13:41:03;;;;;;;13.93;9.43;;;;;;;;;;5052049;28;20060;-69
2023/03/01 13:43:34;;;;;;;14.07;9.50;;;;;;;;;;5054022;28;20036;-70
2023/03/01 13:46:02;;;;;;;13.25;9.60;;;;;;;;;;5048704;28;20160;-69
2023/03/01 13:48:29;;;;;;;13.35;10.50;;;;;;;;;;5054013;28;20086;-70
2023/03/01 13:51:00;;;;;;;13.82;9.82;;;;;;;;;;5057225;28;20044;-69
2023/03/01 13:53:27;;;;;;;12.07;8.85;;;;;;;;;;5055695;28;20045;-69
2023/03/01 13:55:56;;;;;;;13.75;8.90;;;;;;;;;;5062032;28;20037;-70
2023/03/01 13:58:25;;;;;;;15.40;9.10;;;;;;;;;;5049045;28;20533;-69
2023/03/01 14:01:17;;;;;;;12.88;8.88;;;;;;;;;;5045991;28;20141;-70
2023/03/01 14:03:43;;;;;;;12.20;8.52;;;;;;;;;;5028682;28;20053;-70
2023/03/01 14:06:13;;;;;;;11.98;8.85;;;;;;;;;;5048548;28;20048;-70
2023/03/01 14:08:42;;;;;;;11.98;8.52;;;;;;;;;;5051927;28;20032;-69
2023/03/01 14:11:11;;;;;;;11.93;8.18;;;;;;;;;;5033814;28;20141;-71
2023/03/01 14:13:46;;;;;;;12.85;9.57;;;;;;;;;;5049709;28;20048;-69
2023/03/01 14:16:18;;;;;;;10.65;8.38;;;;;;;;;;5058491;28;20045;-65
2023/03/01 14:18:44;;;;;;;12.73;8.65;;;;;;;;;;5069040;28;20036;-67
2023/03/01 14:21:14;;;;;;;14.65;9.02;;;;;;;;;;5048541;28;20065;-69
2023/03/01 14:23:42;;;;;;;13.18;8.60;;;;;;;;;;5045363;28;20089;-69
2023/03/01 14:26:08;;;;;;;12.25;8.82;;;;;;;;;;5059190;28;20411;-67
2023/03/01 14:28:38;;;;;;;12.57;8.93;;;;;;;;;;5064752;28;20086;-69
2023/03/01 14:31:24;;;;;;;11.40;8.57;;;;;;;;;;5057919;28;20538;-71
2023/03/01 14:33:55;;;;;;;13.20;8.55;;;;;;;;;;5064268;28;20045;-70